createdAt,value
2017-11-19T00:00:06.319Z,9.43
2017-11-19T00:02:32.683Z,8.70
2017-11-19T00:04:59.056Z,7.12
2017-11-19T00:07:26.164Z,10.30
2017-11-19T00:09:52.530Z,9.38
2017-11-19T00:12:18.875Z,10.55
2017-11-19T00:14:45.240Z,9.95
2017-11-19T00:17:12.348Z,10.30
2017-11-19T00:19:38.718Z,10.45
2017-11-19T00:22:05.836Z,8.60
2017-11-19T00:24:32.216Z,11.07
2017-11-19T00:26:59.372Z,10.50
2017-11-19T00:29:25.748Z,10.80
2017-11-19T00:31:52.112Z,10.30
2017-11-19T00:34:18.481Z,9.48
2017-11-19T00:36:44.820Z,10.25
2017-11-19T00:39:11.272Z,12.00
2017-11-19T00:41:37.592Z,9.90
2017-11-19T00:44:03.952Z,20.35
2017-11-19T00:46:30.292Z,11.27
2017-11-19T00:48:56.641Z,12.70
2017-11-19T00:51:23.764Z,12.82
2017-11-19T00:53:50.108Z,10.35
2017-11-19T00:56:16.463Z,8.68
2017-11-19T00:58:43.599Z,10.52
2017-11-19T01:01:10.716Z,10.00
2017-11-19T01:03:37.133Z,11.48
2017-11-19T01:06:03.453Z,10.85
2017-11-19T01:08:29.809Z,9.70
2017-11-19T01:10:56.144Z,10.57
2017-11-19T01:13:22.478Z,12.35
2017-11-19T01:15:48.832Z,10.73
2017-11-19T01:18:15.157Z,11.00
2017-11-19T01:20:41.478Z,11.20
2017-11-19T01:23:07.830Z,10.90
2017-11-19T01:25:34.143Z,11.40
2017-11-19T01:28:00.493Z,14.10
2017-11-19T01:30:26.868Z,15.07
2017-11-19T01:32:53.208Z,12.70
2017-11-19T01:35:19.572Z,14.20
2017-11-19T01:37:45.960Z,12.80
2017-11-19T01:40:12.303Z,14.02
2017-11-19T01:42:38.660Z,14.00
2017-11-19T01:45:05.065Z,15.35
2017-11-19T01:47:31.384Z,16.48
2017-11-19T01:49:57.721Z,16.75
2017-11-19T01:52:24.086Z,15.45
2017-11-19T01:54:50.444Z,16.73
2017-11-19T01:57:16.792Z,18.37
2017-11-19T01:59:43.940Z,18.10
2017-11-19T02:02:11.056Z,17.60
2017-11-19T02:04:38.136Z,18.27
2017-11-19T02:07:04.500Z,18.80
2017-11-19T02:09:30.821Z,19.42
2017-11-19T02:11:59.015Z,17.80
2017-11-19T02:14:27.256Z,13.43
2017-11-19T02:16:54.320Z,15.50
2017-11-19T02:19:20.687Z,13.23
2017-11-19T02:21:47.058Z,14.73
2017-11-19T02:24:13.397Z,16.17
2017-11-19T02:26:39.720Z,12.50
2017-11-19T02:29:06.047Z,14.20
2017-11-19T02:31:32.381Z,13.77
2017-11-19T02:33:58.717Z,14.07
2017-11-19T02:36:25.081Z,13.55
2017-11-19T02:38:51.450Z,13.52
2017-11-19T02:41:17.786Z,10.60
2017-11-19T02:43:44.149Z,11.10
2017-11-19T02:46:10.474Z,9.38
2017-11-19T02:48:36.800Z,9.15
2017-11-19T02:51:03.148Z,9.32
2017-11-19T02:53:30.214Z,9.07
2017-11-19T02:55:56.541Z,9.13
2017-11-19T02:58:23.645Z,8.48
2017-11-19T03:00:50.065Z,6.72
2017-11-19T03:03:16.427Z,6.90
2017-11-19T03:05:42.781Z,7.35
2017-11-19T03:08:09.864Z,6.87
2017-11-19T03:10:36.215Z,7.45
2017-11-19T03:13:03.591Z,7.80
2017-11-19T03:15:29.917Z,7.32
2017-11-19T03:17:56.239Z,7.28
2017-11-19T03:20:22.611Z,8.77
2017-11-19T03:22:49.701Z,6.35
2017-11-19T03:25:16.049Z,4.70
2017-11-19T03:27:42.412Z,6.37
2017-11-19T03:30:08.773Z,4.32
2017-11-19T03:32:36.868Z,6.10
2017-11-19T03:35:03.225Z,6.07
2017-11-19T03:37:29.544Z,5.80
2017-11-19T03:39:55.896Z,5.50
2017-11-19T03:42:22.227Z,7.12
2017-11-19T03:44:49.320Z,3.97
2017-11-19T03:47:16.400Z,4.90
2017-11-19T03:49:42.749Z,5.35
2017-11-19T03:52:09.075Z,4.80
2017-11-19T03:54:35.393Z,4.32
2017-11-19T03:57:01.747Z,3.65
2017-11-19T03:59:28.080Z,3.45
2017-11-19T04:01:54.392Z,3.80
2017-11-19T04:04:21.448Z,4.72
2017-11-19T04:06:47.809Z,2.45
2017-11-19T04:09:14.144Z,3.50
2017-11-19T04:11:40.485Z,3.85
2017-11-19T04:14:06.795Z,3.42
2017-11-19T04:16:33.860Z,4.68
2017-11-19T04:19:00.215Z,3.05
2017-11-19T04:21:27.294Z,3.90
2017-11-19T04:23:53.623Z,3.53
2017-11-19T04:26:20.004Z,3.90
2017-11-19T04:28:46.427Z,3.87
2017-11-19T04:31:12.778Z,3.50
2017-11-19T04:33:39.909Z,3.80
2017-11-19T04:36:06.251Z,3.25
2017-11-19T04:38:32.628Z,3.95
2017-11-19T04:40:59.017Z,3.08
2017-11-19T04:43:25.341Z,3.22
2017-11-19T04:45:51.823Z,4.10
2017-11-19T04:48:18.196Z,2.90
2017-11-19T04:50:45.545Z,1.58
2017-11-19T04:53:11.870Z,3.00
2017-11-19T04:55:38.244Z,4.10
2017-11-19T04:58:05.308Z,2.70
2017-11-19T05:00:32.399Z,3.20
2017-11-19T05:02:59.841Z,3.47
2017-11-19T05:05:26.229Z,2.42
2017-11-19T05:07:52.589Z,3.60
2017-11-19T05:10:19.983Z,2.78
2017-11-19T05:12:46.365Z,2.45
2017-11-19T05:15:13.447Z,3.25
2017-11-19T05:17:40.536Z,2.70
2017-11-19T05:20:06.878Z,3.80
2017-11-19T05:22:33.189Z,2.65
2017-11-19T05:24:59.541Z,3.50
2017-11-19T05:27:25.871Z,3.40
2017-11-19T05:29:52.192Z,2.30
2017-11-19T05:32:18.524Z,2.72
2017-11-19T05:34:44.884Z,3.17
2017-11-19T05:37:11.980Z,2.47
2017-11-19T05:39:38.327Z,2.80
2017-11-19T05:42:04.663Z,2.15
2017-11-19T05:44:30.988Z,3.10
2017-11-19T05:46:57.321Z,2.80
2017-11-19T05:49:23.641Z,2.55
2017-11-19T05:51:49.977Z,3.33
2017-11-19T05:54:17.068Z,2.72
2017-11-19T05:56:44.155Z,2.75
2017-11-19T05:59:11.490Z,2.30
2017-11-19T06:01:37.844Z,2.78
2017-11-19T06:04:04.163Z,2.12
2017-11-19T06:06:30.496Z,2.37
2017-11-19T06:08:56.824Z,2.30
2017-11-19T06:11:23.159Z,2.83
2017-11-19T06:13:49.476Z,3.65
2017-11-19T06:16:15.837Z,2.72
2017-11-19T06:18:42.152Z,3.30
2017-11-19T06:21:08.496Z,2.85
2017-11-19T06:23:34.820Z,4.00
2017-11-19T06:26:01.176Z,3.17
2017-11-19T06:28:27.512Z,2.62
2017-11-19T06:30:55.444Z,2.37
2017-11-19T06:33:21.797Z,3.10
2017-11-19T06:35:48.168Z,3.22
2017-11-19T06:38:14.500Z,3.15
2017-11-19T06:40:40.812Z,2.85
2017-11-19T06:43:07.132Z,2.60
2017-11-19T06:45:33.497Z,2.35
2017-11-19T06:47:59.868Z,3.00
2017-11-19T06:50:26.261Z,3.67
2017-11-19T06:52:52.619Z,2.70
2017-11-19T06:55:18.944Z,2.92
2017-11-19T06:57:46.033Z,3.12
2017-11-19T07:00:12.411Z,3.25
2017-11-19T07:02:39.486Z,3.35
2017-11-19T07:05:05.804Z,7.05
2017-11-19T07:07:32.888Z,3.05
2017-11-19T07:09:59.198Z,12.82
2017-11-19T07:12:25.516Z,6.03
2017-11-19T07:14:52.608Z,8.40
2017-11-19T07:17:18.934Z,4.68
2017-11-19T07:19:45.321Z,2.97
2017-11-19T07:22:12.420Z,3.20
2017-11-19T07:24:39.500Z,3.62
2017-11-19T07:27:05.864Z,2.83
2017-11-19T07:29:33.982Z,5.35
2017-11-19T07:32:00.352Z,4.72
2017-11-19T07:34:27.523Z,6.45
2017-11-19T07:36:54.651Z,2.87
2017-11-19T07:39:21.797Z,4.78
2017-11-19T07:41:48.291Z,3.58
2017-11-19T07:44:14.664Z,1.90
2017-11-19T07:46:41.098Z,4.20
2017-11-19T07:49:07.447Z,2.20
2017-11-19T07:51:34.569Z,2.45
2017-11-19T07:54:00.916Z,2.50
2017-11-19T07:56:28.040Z,3.05
2017-11-19T07:58:54.416Z,4.22
2017-11-19T08:01:21.541Z,3.40
2017-11-19T08:03:47.906Z,1.55
2017-11-19T08:06:14.999Z,3.55
2017-11-19T08:08:41.384Z,2.58
2017-11-19T08:11:08.498Z,1.90
2017-11-19T08:13:34.870Z,2.75
2017-11-19T08:16:01.952Z,2.37
2017-11-19T08:18:28.309Z,2.70
2017-11-19T08:20:54.660Z,2.35
2017-11-19T08:23:21.028Z,3.40
2017-11-19T08:25:47.379Z,4.65
2017-11-19T08:28:13.723Z,3.55
2017-11-19T08:30:40.097Z,4.85
2017-11-19T08:33:08.191Z,12.37
2017-11-19T08:35:34.517Z,5.78
2017-11-19T08:38:00.895Z,3.35
2017-11-19T08:40:27.219Z,2.97
2017-11-19T08:45:26.655Z,3.08
2017-11-19T08:47:53.004Z,3.60
2017-11-19T08:50:19.334Z,2.87
2017-11-19T08:52:45.695Z,3.30
2017-11-19T08:55:12.764Z,3.53
2017-11-19T08:57:39.088Z,4.70
2017-11-19T09:00:05.455Z,3.90
2017-11-19T09:02:31.792Z,4.10
2017-11-19T09:04:58.121Z,3.45
2017-11-19T09:07:24.821Z,3.58
2017-11-19T09:09:51.149Z,3.25
2017-11-19T09:12:17.489Z,4.75
2017-11-19T09:14:44.152Z,3.87
2017-11-19T09:17:10.473Z,4.85
2017-11-19T09:19:36.808Z,4.03
2017-11-19T09:22:03.167Z,3.87
2017-11-19T09:24:29.505Z,4.55
2017-11-19T09:26:55.839Z,4.43
2017-11-19T09:29:22.186Z,4.20
2017-11-19T09:31:49.257Z,4.05
2017-11-19T09:34:16.348Z,4.47
2017-11-19T09:36:42.713Z,4.95
2017-11-19T09:39:09.092Z,3.33
2017-11-19T09:41:35.420Z,3.58
2017-11-19T09:44:01.778Z,3.97
2017-11-19T09:46:28.134Z,3.75
2017-11-19T09:48:54.469Z,3.90
2017-11-19T09:51:20.796Z,2.75
2017-11-19T09:53:47.156Z,4.18
2017-11-19T09:56:14.244Z,3.53
2017-11-19T09:58:40.584Z,4.30
2017-11-19T10:01:06.949Z,3.58
2017-11-19T10:03:33.356Z,4.00
2017-11-19T10:05:59.688Z,4.65
2017-11-19T10:08:26.052Z,3.08
2017-11-19T10:10:52.372Z,4.25
2017-11-19T10:13:18.725Z,4.68
2017-11-19T10:15:45.795Z,4.15
2017-11-19T10:18:13.161Z,4.18
2017-11-19T10:20:39.488Z,2.95
2017-11-19T10:23:05.821Z,3.95
2017-11-19T10:25:32.201Z,4.20
2017-11-19T10:27:58.557Z,3.75
2017-11-19T10:30:25.620Z,3.20
2017-11-19T10:32:52.718Z,4.82
2017-11-19T10:35:19.044Z,4.55
2017-11-19T10:37:45.371Z,3.78
2017-11-19T10:40:11.729Z,3.83
2017-11-19T10:42:38.076Z,4.40
2017-11-19T10:45:04.440Z,4.35
2017-11-19T10:47:30.787Z,3.90
2017-11-19T10:49:57.137Z,2.95
2017-11-19T10:52:23.484Z,3.92
2017-11-19T10:54:49.815Z,4.40
2017-11-19T10:57:16.136Z,3.75
2017-11-19T10:59:42.468Z,3.05
2017-11-19T11:02:08.816Z,3.90
2017-11-19T11:04:35.184Z,3.87
2017-11-19T11:07:01.516Z,4.12
2017-11-19T11:09:28.632Z,3.78
2017-11-19T11:11:54.948Z,2.97
2017-11-19T11:14:21.268Z,3.40
2017-11-19T11:16:48.454Z,2.78
2017-11-19T11:19:15.254Z,3.65
2017-11-19T11:21:41.975Z,2.67
2017-11-19T11:24:09.646Z,3.03
2017-11-19T11:26:36.474Z,2.90
2017-11-19T11:29:03.220Z,3.15
2017-11-19T11:31:29.873Z,2.90
2017-11-19T11:33:56.514Z,3.15
2017-11-19T11:36:24.663Z,2.80
2017-11-19T11:38:51.464Z,1.75
2017-11-19T11:41:18.408Z,2.17
2017-11-19T11:43:45.305Z,2.22
2017-11-19T11:46:12.483Z,2.50
2017-11-19T11:48:39.312Z,2.80
2017-11-19T11:51:06.612Z,2.20
2017-11-19T11:53:34.060Z,3.17
2017-11-19T11:56:00.716Z,2.25
2017-11-19T11:58:28.231Z,2.05
2017-11-19T12:00:55.017Z,2.60
2017-11-19T12:03:22.460Z,2.78
2017-11-19T12:05:50.117Z,2.33
2017-11-19T12:08:16.630Z,1.75
2017-11-19T12:10:43.484Z,2.85
2017-11-19T12:13:10.091Z,3.05
2017-11-19T12:15:36.719Z,2.65
2017-11-19T12:18:03.474Z,2.62
2017-11-19T12:20:30.174Z,2.10
2017-11-19T12:26:02.108Z,4.72
2017-11-19T12:28:28.487Z,3.45
2017-11-19T12:30:54.835Z,2.87
2017-11-19T12:33:21.965Z,2.90
2017-11-19T12:35:49.299Z,3.83
2017-11-19T12:38:15.633Z,2.75
2017-11-19T12:40:54.107Z,2.53
2017-11-19T12:43:20.436Z,3.35
2017-11-19T12:45:46.965Z,3.00
2017-11-19T12:48:16.732Z,3.05
2017-11-19T12:50:43.086Z,3.80
2017-11-19T12:53:10.189Z,3.70
2017-11-19T12:55:36.555Z,3.70
2017-11-19T12:58:02.909Z,4.03
2017-11-19T13:00:29.292Z,4.53
2017-11-19T13:02:55.640Z,5.22
2017-11-19T13:05:21.959Z,5.03
2017-11-19T13:07:48.366Z,5.95
2017-11-19T13:10:14.682Z,6.18
2017-11-19T13:12:41.039Z,5.65
2017-11-19T13:15:07.396Z,4.30
2017-11-19T13:17:33.731Z,4.50
2017-11-19T13:20:00.081Z,4.05
2017-11-19T13:22:27.183Z,4.37
2017-11-19T13:24:53.498Z,3.50
2017-11-19T13:27:19.828Z,3.20
2017-11-19T13:29:46.218Z,3.65
2017-11-19T13:32:13.338Z,4.60
2017-11-19T13:34:39.708Z,4.28
2017-11-19T13:37:06.065Z,4.68
2017-11-19T13:39:33.171Z,3.70
2017-11-19T13:42:00.251Z,4.72
2017-11-19T13:44:26.592Z,3.75
2017-11-19T13:46:52.938Z,3.55
2017-11-19T13:49:19.340Z,3.10
2017-11-19T13:51:45.692Z,2.78
2017-11-19T13:54:12.016Z,2.62
2017-11-19T13:56:38.336Z,2.70
2017-11-19T13:59:04.700Z,8.50
2017-11-19T14:01:31.019Z,9.25
2017-11-19T14:03:57.350Z,11.77
2017-11-19T14:06:24.596Z,7.22
2017-11-19T14:08:50.958Z,3.45
2017-11-19T14:11:17.288Z,4.12
2017-11-19T14:13:43.608Z,3.65
2017-11-19T14:16:09.951Z,3.05
2017-11-19T14:18:36.317Z,2.78
2017-11-19T14:21:02.642Z,2.65
2017-11-19T14:23:28.984Z,3.17
2017-11-19T14:25:55.344Z,3.10
2017-11-19T14:28:21.718Z,3.50
2017-11-19T14:30:48.811Z,3.97
2017-11-19T14:33:15.138Z,3.72
2017-11-19T14:35:41.464Z,3.60
2017-11-19T14:38:07.813Z,3.78
2017-11-19T14:40:34.147Z,3.80
2017-11-19T14:43:00.536Z,3.40
2017-11-19T14:45:26.893Z,4.07
2017-11-19T14:47:53.240Z,3.90
2017-11-19T14:50:19.604Z,2.33
2017-11-19T14:52:45.943Z,2.90
2017-11-19T14:55:13.019Z,2.80
2017-11-19T14:57:39.375Z,4.05
2017-11-19T15:00:05.696Z,4.47
2017-11-19T15:02:32.061Z,2.60
2017-11-19T15:04:58.397Z,2.90
2017-11-19T15:07:24.733Z,3.33
2017-11-19T15:09:51.063Z,3.10
2017-11-19T15:12:17.560Z,3.53
2017-11-19T15:14:43.876Z,2.95
2017-11-19T15:17:10.212Z,3.55
2017-11-19T15:19:36.558Z,3.75
2017-11-19T15:22:02.925Z,3.15
2017-11-19T15:24:29.987Z,2.70
2017-11-19T15:26:57.048Z,3.60
2017-11-19T15:29:23.403Z,3.75
2017-11-19T15:31:49.733Z,3.75
2017-11-19T15:34:16.059Z,4.30
2017-11-19T15:36:42.433Z,3.28
2017-11-19T15:39:09.547Z,3.37
2017-11-19T15:41:35.881Z,4.28
2017-11-19T15:44:02.276Z,4.55
2017-11-19T15:46:28.616Z,3.40
2017-11-19T15:48:54.979Z,3.83
2017-11-19T15:51:21.316Z,3.22
2017-11-19T15:53:47.687Z,3.42
2017-11-19T15:56:14.784Z,3.35
2017-11-19T15:58:41.112Z,3.03
2017-11-19T16:01:07.443Z,4.35
2017-11-19T16:03:33.793Z,4.10
2017-11-19T16:06:00.117Z,4.70
2017-11-19T16:08:26.452Z,3.97
2017-11-19T16:10:52.791Z,5.62
2017-11-19T16:13:19.130Z,10.73
2017-11-19T16:15:46.204Z,6.50
2017-11-19T16:18:12.569Z,8.50
2017-11-19T16:20:39.908Z,16.12
2017-11-19T16:23:06.251Z,11.20
2017-11-19T16:25:32.582Z,13.35
2017-11-19T16:27:58.904Z,9.07
2017-11-19T16:30:25.244Z,15.60
2017-11-19T16:32:51.631Z,5.68
2017-11-19T16:35:18.724Z,6.47
2017-11-19T16:37:45.061Z,9.57
2017-11-19T16:40:11.384Z,8.40
2017-11-19T16:42:38.749Z,7.18
2017-11-19T16:45:05.107Z,5.45
2017-11-19T16:47:32.183Z,10.82
2017-11-19T16:49:58.524Z,5.40
2017-11-19T16:52:24.873Z,8.95
2017-11-19T16:54:51.253Z,7.30
2017-11-19T16:57:18.353Z,9.80
2017-11-19T16:59:44.680Z,5.55
2017-11-19T17:02:11.036Z,5.40
2017-11-19T17:04:37.379Z,6.00
2017-11-19T17:07:03.748Z,9.20
2017-11-19T17:09:30.108Z,5.90
2017-11-19T17:11:56.430Z,8.70
2017-11-19T17:14:22.783Z,9.77
2017-11-19T17:16:49.107Z,5.75
2017-11-19T17:19:15.451Z,21.83
2017-11-19T17:21:41.804Z,12.15
2017-11-19T17:24:09.896Z,16.67
2017-11-19T17:26:36.239Z,5.75
2017-11-19T17:29:02.595Z,5.12
2017-11-19T17:31:29.931Z,6.78
2017-11-19T17:33:56.279Z,8.50
2017-11-19T17:36:28.725Z,4.60
2017-11-19T17:38:55.056Z,5.05
2017-11-19T17:41:21.398Z,5.80
2017-11-19T17:43:47.752Z,5.35
2017-11-19T17:46:14.079Z,5.00
2017-11-19T17:48:40.433Z,4.65
2017-11-19T17:51:06.795Z,5.12
2017-11-19T17:53:33.111Z,5.10
2017-11-19T17:56:00.172Z,4.60
2017-11-19T17:58:26.527Z,5.05
2017-11-19T18:00:52.848Z,4.10
2017-11-19T18:03:19.202Z,6.90
2017-11-19T18:05:45.544Z,7.03
2017-11-19T18:08:11.873Z,6.18
2017-11-19T18:10:38.248Z,11.80
2017-11-19T18:13:05.307Z,7.70
2017-11-19T18:15:31.640Z,6.03
2017-11-19T18:17:57.966Z,3.75
2017-11-19T18:20:24.341Z,5.75
2017-11-19T18:22:50.727Z,19.65
2017-11-19T18:25:17.087Z,15.35
2017-11-19T18:27:43.410Z,16.10
2017-11-19T18:30:09.780Z,13.75
2017-11-19T18:32:36.098Z,12.30
2017-11-19T18:35:02.455Z,7.95
2017-11-19T18:37:29.516Z,6.28
2017-11-19T18:39:56.591Z,9.55
2017-11-19T18:42:22.955Z,18.48
2017-11-19T18:44:49.302Z,5.28
2017-11-19T18:47:15.655Z,7.20
2017-11-19T18:49:42.746Z,4.55
2017-11-19T18:52:09.072Z,10.73
2017-11-19T18:54:36.155Z,5.07
2017-11-19T18:57:02.536Z,7.20
2017-11-19T18:59:28.859Z,15.73
2017-11-19T19:01:55.215Z,10.82
2017-11-19T19:04:21.547Z,8.20
2017-11-19T19:06:47.891Z,9.27
2017-11-19T19:09:14.227Z,5.30
2017-11-19T19:11:40.577Z,5.15
2017-11-19T19:14:07.666Z,5.03
2017-11-19T19:16:34.015Z,5.15
2017-11-19T19:19:00.350Z,3.33
2017-11-19T19:21:26.700Z,3.08
2017-11-19T19:23:53.041Z,7.12
2017-11-19T19:26:19.396Z,4.05
2017-11-19T19:28:46.487Z,5.78
2017-11-19T19:31:12.823Z,6.93
2017-11-19T19:33:39.163Z,5.47
2017-11-19T19:36:05.516Z,3.70
2017-11-19T19:38:31.842Z,3.30
2017-11-19T19:40:58.230Z,4.90
2017-11-19T19:43:24.596Z,2.17
2017-11-19T19:45:50.965Z,2.62
2017-11-19T19:48:17.317Z,5.25
2017-11-19T19:50:45.009Z,4.45
2017-11-19T19:53:11.340Z,4.62
2017-11-19T19:55:37.696Z,4.25
2017-11-19T19:58:04.792Z,4.80
2017-11-19T20:00:33.645Z,3.92
2017-11-19T20:03:00.091Z,3.60
2017-11-19T20:05:26.469Z,5.35
2017-11-19T20:07:52.820Z,8.20
2017-11-19T20:10:19.173Z,3.22
2017-11-19T20:12:46.289Z,2.55
2017-11-19T20:15:12.619Z,3.50
2017-11-19T20:17:38.969Z,3.22
2017-11-19T20:20:06.460Z,2.75
2017-11-19T20:22:32.784Z,3.22
2017-11-19T20:24:59.148Z,3.05
2017-11-19T20:27:25.487Z,2.60
2017-11-19T20:29:51.944Z,4.05
2017-11-19T20:32:19.389Z,3.60
2017-11-19T20:34:45.711Z,3.15
2017-11-19T20:37:12.046Z,3.25
2017-11-19T20:39:38.415Z,3.37
2017-11-19T20:42:04.764Z,3.00
2017-11-19T20:44:31.854Z,3.10
2017-11-19T20:46:58.199Z,3.08
2017-11-19T20:49:24.538Z,3.28
2017-11-19T20:51:51.668Z,2.62
2017-11-19T20:54:18.020Z,2.70
2017-11-19T20:56:45.099Z,3.70
2017-11-19T20:59:11.680Z,3.55
2017-11-19T21:01:38.067Z,2.80
2017-11-19T21:04:04.430Z,2.95
2017-11-19T21:06:30.763Z,3.00
2017-11-19T21:08:57.103Z,3.00
2017-11-19T21:11:23.439Z,2.75
2017-11-19T21:13:49.763Z,2.17
2017-11-19T21:16:16.082Z,3.17
2017-11-19T21:18:42.475Z,3.87
2017-11-19T21:21:08.846Z,3.62
2017-11-19T21:23:35.172Z,3.20
2017-11-19T21:26:01.517Z,4.07
2017-11-19T21:28:27.871Z,4.18
2017-11-19T21:30:54.930Z,4.05
2017-11-19T21:33:22.086Z,3.60
2017-11-19T21:35:48.447Z,3.35
2017-11-19T21:38:14.780Z,3.15
2017-11-19T21:40:41.114Z,3.12
2017-11-19T21:43:07.459Z,3.42
2017-11-19T21:45:33.787Z,3.20
2017-11-19T21:48:00.114Z,3.50
2017-11-19T21:50:26.471Z,3.50
2017-11-19T21:52:53.699Z,3.67
2017-11-19T21:55:20.024Z,3.58
2017-11-19T21:57:46.399Z,3.92
2017-11-19T22:00:13.503Z,4.25
2017-11-19T22:02:40.227Z,4.20
2017-11-19T22:05:06.570Z,4.35
2017-11-19T22:07:32.962Z,3.70
2017-11-19T22:09:59.291Z,4.03
2017-11-19T22:12:25.673Z,3.67
2017-11-19T22:14:52.028Z,3.47
2017-11-19T22:17:18.366Z,4.45
2017-11-19T22:19:45.457Z,4.87
2017-11-19T22:22:12.069Z,4.05
2017-11-19T22:24:38.474Z,5.93
2017-11-19T22:27:05.651Z,4.62
2017-11-19T22:29:32.043Z,3.40
2017-11-19T22:31:58.590Z,5.75
2017-11-19T22:34:25.012Z,4.60
2017-11-19T22:36:51.401Z,5.25
2017-11-19T22:39:17.820Z,5.00
2017-11-19T22:41:44.235Z,5.25
2017-11-19T22:44:11.342Z,4.90
2017-11-19T22:46:37.690Z,4.97
2017-11-19T22:49:04.023Z,5.55
2017-11-19T22:51:30.439Z,6.32
2017-11-19T22:53:56.764Z,6.85
2017-11-19T22:56:23.087Z,4.60
2017-11-19T22:58:49.434Z,4.95
2017-11-19T23:01:15.784Z,5.35
2017-11-19T23:03:42.857Z,5.45
2017-11-19T23:06:09.207Z,4.62
2017-11-19T23:08:35.568Z,5.40
2017-11-19T23:11:01.943Z,3.87
2017-11-19T23:13:28.304Z,5.60
2017-11-19T23:15:54.630Z,4.50
2017-11-19T23:18:21.005Z,5.43
2017-11-19T23:20:47.352Z,5.15
2017-11-19T23:23:14.479Z,5.80
2017-11-19T23:25:40.803Z,4.07
2017-11-19T23:28:07.139Z,5.10
2017-11-19T23:30:33.531Z,5.10
2017-11-19T23:32:59.964Z,4.55
2017-11-19T23:35:26.308Z,4.80
2017-11-19T23:37:52.627Z,4.70
2017-11-19T23:40:18.989Z,4.80
2017-11-19T23:42:45.347Z,4.15
2017-11-19T23:45:12.425Z,6.20
2017-11-19T23:47:38.784Z,5.32
2017-11-19T23:50:05.109Z,5.15
2017-11-19T23:52:31.434Z,4.90
2017-11-19T23:54:57.791Z,4.90
2017-11-19T23:57:24.126Z,5.22
2017-11-19T23:59:50.479Z,5.03
